createdAt,value
2019-02-21T00:00:51.451Z,64.90
2019-02-21T00:03:24.520Z,64.60
2019-02-21T00:05:59.193Z,65.00
2019-02-21T00:08:32.547Z,64.70
2019-02-21T00:11:02.848Z,65.50
2019-02-21T00:13:38.851Z,64.00
2019-02-21T00:16:14.787Z,64.00
2019-02-21T00:18:47.590Z,64.80
2019-02-21T00:21:22.253Z,66.50
2019-02-21T00:23:56.140Z,66.00
2019-02-21T00:26:32.439Z,66.10
2019-02-21T00:29:04.534Z,65.80
2019-02-21T00:31:39.893Z,65.70
2019-02-21T00:34:11.098Z,65.60
2019-02-21T00:36:44.528Z,65.60
2019-02-21T00:39:21.594Z,65.30
2019-02-21T00:41:58.361Z,65.20
2019-02-21T00:44:29.267Z,64.90
2019-02-21T00:47:04.673Z,64.70
2019-02-21T00:49:37.901Z,65.00
2019-02-21T00:52:14.307Z,65.20
2019-02-21T00:54:48.931Z,65.40
2019-02-21T00:57:24.049Z,66.10
2019-02-21T01:00:02.662Z,66.10
2019-02-21T01:02:39.449Z,66.00
2019-02-21T01:05:14.821Z,66.00
2019-02-21T01:07:49.131Z,65.70
2019-02-21T01:10:24.896Z,65.90
2019-02-21T01:12:57.590Z,65.50
2019-02-21T01:15:31.380Z,65.50
2019-02-21T01:18:05.519Z,65.30
2019-02-21T01:20:41.387Z,64.70
2019-02-21T01:23:15.986Z,65.50
2019-02-21T01:25:52.542Z,65.10
2019-02-21T01:28:27.437Z,65.30
2019-02-21T01:31:02.522Z,65.30
2019-02-21T01:33:39.466Z,64.90
2019-02-21T01:36:16.454Z,64.90
2019-02-21T01:38:52.851Z,65.10
2019-02-21T01:41:31.865Z,64.70
2019-02-21T01:44:05.420Z,64.70
2019-02-21T01:46:39.392Z,64.60
2019-02-21T01:49:13.586Z,64.30
2019-02-21T01:51:48.378Z,64.80
2019-02-21T01:54:22.401Z,64.20
2019-02-21T01:56:56.543Z,64.20
2019-02-21T01:59:31.052Z,64.50
2019-02-21T02:02:03.868Z,64.90
2019-02-21T02:04:41.058Z,63.80
2019-02-21T02:07:40.385Z,63.70
2019-02-21T02:10:14.319Z,64.30
2019-02-21T02:12:49.153Z,64.20
2019-02-21T02:15:25.964Z,64.10
2019-02-21T02:18:00.321Z,64.30
2019-02-21T02:20:34.824Z,64.90
2019-02-21T02:23:07.508Z,64.60
2019-02-21T02:25:45.184Z,64.40
2019-02-21T02:28:21.798Z,64.00
2019-02-21T02:30:55.513Z,64.10
2019-02-21T02:33:28.572Z,64.10
2019-02-21T02:36:04.185Z,64.60
2019-02-21T02:38:38.693Z,64.70
2019-02-21T02:41:10.514Z,64.50
2019-02-21T02:43:41.562Z,64.90
2019-02-21T02:46:15.366Z,65.90
2019-02-21T02:48:50.338Z,66.70
2019-02-21T02:51:22.636Z,65.50
2019-02-21T02:53:54.647Z,65.00
2019-02-21T02:56:29.781Z,65.70
2019-02-21T02:59:01.680Z,65.50
2019-02-21T03:01:35.488Z,65.30
2019-02-21T03:04:07.633Z,65.20
2019-02-21T03:06:43.504Z,65.80
2019-02-21T03:09:17.094Z,65.70
2019-02-21T03:11:51.939Z,65.90
2019-02-21T03:14:24.449Z,65.50
2019-02-21T03:16:58.773Z,65.50
2019-02-21T03:19:34.361Z,65.00
2019-02-21T03:22:03.241Z,65.20
2019-02-21T03:24:39.879Z,65.30
2019-02-21T03:27:11.253Z,65.70
2019-02-21T03:29:43.679Z,66.10
2019-02-21T03:32:17.006Z,66.50
2019-02-21T03:34:49.967Z,66.40
2019-02-21T03:37:27.905Z,67.30
2019-02-21T03:39:58.206Z,67.30
2019-02-21T03:42:33.988Z,66.90
2019-02-21T03:45:03.839Z,66.30
2019-02-21T03:47:35.119Z,66.40
2019-02-21T03:50:09.991Z,66.40
2019-02-21T03:52:43.026Z,66.80
2019-02-21T03:55:15.237Z,67.10
2019-02-21T03:57:47.274Z,66.90
2019-02-21T04:00:18.885Z,67.50
2019-02-21T04:02:53.199Z,67.60
2019-02-21T04:05:28.733Z,67.70
2019-02-21T04:08:07.324Z,67.20
2019-02-21T04:10:40.834Z,67.00
2019-02-21T04:13:15.173Z,67.00
2019-02-21T04:15:48.109Z,67.80
2019-02-21T04:18:23.192Z,67.30
2019-02-21T04:20:57.064Z,67.70
2019-02-21T04:23:31.226Z,67.50
2019-02-21T04:26:05.076Z,67.90
2019-02-21T04:28:37.213Z,68.50
2019-02-21T04:31:12.421Z,68.00
2019-02-21T04:33:44.962Z,68.10
2019-02-21T04:36:18.395Z,68.80
2019-02-21T04:38:54.497Z,69.10
2019-02-21T04:41:27.492Z,68.90
2019-02-21T04:44:13.224Z,70.10
2019-02-21T04:46:47.681Z,69.80
2019-02-21T04:49:22.274Z,70.80
2019-02-21T04:51:55.097Z,70.70
2019-02-21T04:54:26.323Z,70.70
2019-02-21T04:57:02.737Z,69.90
2019-02-21T04:59:36.526Z,70.00
2019-02-21T05:02:12.637Z,69.90
2019-02-21T05:04:45.500Z,70.20
2019-02-21T05:07:19.060Z,70.00
2019-02-21T05:09:58.004Z,70.10
2019-02-21T05:12:29.079Z,70.90
2019-02-21T05:15:02.890Z,70.60
2019-02-21T05:17:50.353Z,71.30
2019-02-21T05:20:34.993Z,71.80
2019-02-21T05:23:13.326Z,71.50
2019-02-21T05:25:48.310Z,71.60
2019-02-21T05:28:27.655Z,71.10
2019-02-21T05:31:01.147Z,70.90
2019-02-21T05:33:38.687Z,70.90
2019-02-21T05:36:11.838Z,70.40
2019-02-21T05:38:56.154Z,70.50
2019-02-21T05:41:28.765Z,70.40
2019-02-21T05:44:07.192Z,70.20
2019-02-21T05:46:49.211Z,70.80
2019-02-21T05:49:40.073Z,71.00
2019-02-21T05:52:21.043Z,72.00
2019-02-21T05:55:12.133Z,71.20
2019-02-21T05:57:45.698Z,71.20
2019-02-21T06:00:27.301Z,71.50
2019-02-21T06:03:19.271Z,71.50
2019-02-21T06:05:56.404Z,71.10
2019-02-21T06:08:44.116Z,70.70
2019-02-21T06:11:23.465Z,69.80
2019-02-21T06:13:59.218Z,70.00
2019-02-21T06:16:32.957Z,70.50
2019-02-21T06:19:09.031Z,69.60
2019-02-21T06:21:46.752Z,69.90
2019-02-21T06:24:27.139Z,68.90
2019-02-21T06:27:02.426Z,68.60
2019-02-21T06:29:52.905Z,68.20
2019-02-21T06:32:22.176Z,68.00
2019-02-21T06:35:02.667Z,68.20
2019-02-21T06:37:31.945Z,68.50
2019-02-21T06:40:09.630Z,68.80
2019-02-21T06:42:51.574Z,68.40
2019-02-21T06:45:23.813Z,68.70
2019-02-21T06:47:57.266Z,68.30
2019-02-21T06:50:38.925Z,67.90
2019-02-21T06:53:13.732Z,68.20
2019-02-21T06:55:47.685Z,67.90
2019-02-21T06:58:22.439Z,68.00
2019-02-21T07:00:54.849Z,67.90
2019-02-21T07:03:35.251Z,68.40
2019-02-21T07:06:05.467Z,68.20
2019-02-21T07:09:19.882Z,68.80
2019-02-21T07:11:51.641Z,69.00
2019-02-21T07:15:14.912Z,69.10
2019-02-21T07:17:49.413Z,70.00
2019-02-21T07:20:39.845Z,70.30
2019-02-21T07:23:11.389Z,70.80
2019-02-21T07:28:29.535Z,67.20
2019-02-21T07:30:59.298Z,69.30
2019-02-21T07:33:29.338Z,69.30
2019-02-21T07:35:59.474Z,69.30
2019-02-21T07:39:13.663Z,69.70
2019-02-21T07:41:32.767Z,69.30
2019-02-21T07:46:53.394Z,68.90
2019-02-21T07:49:25.469Z,68.80
2019-02-21T07:58:33.937Z,69.00
2019-02-21T08:01:05.341Z,67.60
2019-02-21T08:03:43.892Z,67.20
2019-02-21T08:06:12.969Z,66.60
2019-02-21T08:09:10.209Z,66.60
2019-02-21T08:11:40.086Z,66.50
2019-02-21T08:14:35.095Z,66.70
2019-02-21T08:17:05.616Z,66.80
2019-02-21T08:19:35.999Z,66.70
2019-02-21T08:22:11.990Z,66.80
2019-02-21T08:24:47.948Z,66.80
2019-02-21T08:27:18.200Z,66.40
2019-02-21T08:29:50.481Z,66.00
2019-02-21T08:32:41.482Z,66.60
2019-02-21T08:35:17.124Z,66.00
2019-02-21T08:37:49.730Z,65.90
2019-02-21T08:40:25.147Z,66.00
2019-02-21T08:43:37.105Z,66.10
2019-02-21T08:46:14.434Z,66.40
2019-02-21T08:48:47.740Z,66.70
2019-02-21T08:51:18.400Z,66.70
2019-02-21T08:53:48.324Z,66.50
2019-02-21T08:57:02.183Z,66.20
2019-02-21T08:59:34.708Z,66.00
2019-02-21T09:02:47.187Z,65.90
2019-02-21T09:05:19.037Z,66.40
2019-02-21T09:08:19.812Z,65.40
2019-02-21T09:10:58.925Z,65.00
2019-02-21T09:13:38.574Z,65.10
2019-02-21T09:16:08.319Z,64.60
2019-02-21T09:18:42.375Z,64.60
2019-02-21T09:21:17.527Z,64.00
2019-02-21T09:23:56.779Z,64.00
2019-02-21T09:26:29.733Z,65.30
2019-02-21T09:31:54.103Z,62.20
2019-02-21T09:34:25.618Z,61.90
2019-02-21T09:36:54.656Z,62.10
2019-02-21T09:39:24.974Z,62.10
2019-02-21T09:42:18.099Z,62.20
2019-02-21T09:44:57.995Z,62.70
2019-02-21T09:47:33.116Z,63.20
2019-02-21T09:50:01.059Z,63.30
2019-02-21T09:52:36.848Z,63.50
2019-02-21T09:55:14.635Z,63.20
2019-02-21T09:57:49.459Z,65.00
2019-02-21T10:00:55.447Z,67.10
2019-02-21T10:03:26.074Z,69.10
2019-02-21T10:05:58.415Z,68.40
2019-02-21T10:08:29.173Z,65.60
2019-02-21T10:11:36.207Z,64.50
2019-02-21T10:14:05.985Z,63.30
2019-02-21T10:17:19.332Z,60.20
2019-02-21T10:19:48.942Z,60.00
2019-02-21T10:22:48.383Z,59.70
2019-02-21T10:25:30.709Z,59.60
2019-02-21T10:28:22.355Z,60.10
2019-02-21T10:30:52.769Z,60.20
2019-02-21T10:33:59.250Z,61.00
2019-02-21T10:36:33.038Z,62.00
2019-02-21T10:39:40.275Z,62.70
2019-02-21T10:42:14.806Z,61.30
2019-02-21T10:45:10.101Z,60.70
2019-02-21T10:47:40.730Z,60.90
2019-02-21T10:51:05.373Z,60.90
2019-02-21T10:53:41.078Z,62.30
2019-02-21T10:56:26.627Z,61.10
2019-02-21T10:58:57.985Z,60.90
2019-02-21T11:08:41.878Z,62.50
2019-02-21T11:11:20.349Z,60.50
2019-02-21T11:14:26.660Z,61.70
2019-02-21T11:17:00.419Z,61.70
2019-02-21T11:19:29.624Z,61.50
2019-02-21T11:22:03.094Z,60.10
2019-02-21T11:24:35.415Z,59.40
2019-02-21T11:27:14.509Z,61.50
2019-02-21T11:29:46.221Z,59.60
2019-02-21T11:32:17.971Z,58.60
2019-02-21T11:35:06.133Z,58.10
2019-02-21T11:37:56.082Z,57.20
2019-02-21T11:40:29.243Z,58.00
2019-02-21T11:43:16.385Z,57.80
2019-02-21T11:45:53.974Z,56.80
2019-02-21T11:49:01.095Z,57.70
2019-02-21T11:51:31.506Z,57.50
2019-02-21T11:54:36.556Z,58.40
2019-02-21T11:57:05.798Z,58.50
2019-02-21T11:59:36.391Z,57.80
2019-02-21T12:02:05.613Z,57.40
2019-02-21T12:04:35.376Z,56.20
2019-02-21T12:07:24.095Z,56.40
2019-02-21T12:09:56.655Z,56.10
2019-02-21T12:16:01.070Z,57.10
2019-02-21T12:18:37.993Z,56.50
2019-02-21T12:21:58.375Z,56.30
2019-02-21T12:24:19.933Z,56.50
2019-02-21T12:26:57.208Z,56.30
2019-02-21T12:29:33.653Z,57.50
2019-02-21T12:32:34.763Z,57.00
2019-02-21T12:35:06.524Z,55.90
2019-02-21T12:38:39.853Z,56.60
2019-02-21T12:41:09.466Z,57.70
2019-02-21T12:43:59.509Z,56.70
2019-02-21T12:46:30.580Z,56.20
2019-02-21T12:49:07.315Z,56.60
2019-02-21T12:51:41.118Z,56.20
2019-02-21T12:54:15.595Z,56.40
2019-02-21T12:56:50.388Z,56.30
2019-02-21T12:59:24.587Z,56.10
2019-02-21T13:01:53.709Z,55.90
2019-02-21T13:04:24.674Z,56.10
2019-02-21T13:07:45.095Z,54.50
2019-02-21T13:10:25.086Z,54.00
2019-02-21T13:13:29.891Z,54.50
2019-02-21T13:16:08.038Z,54.30
2019-02-21T13:19:25.844Z,53.90
2019-02-21T13:22:01.382Z,54.00
2019-02-21T13:25:10.667Z,54.40
2019-02-21T13:27:41.606Z,54.10
2019-02-21T13:30:49.288Z,53.60
2019-02-21T13:33:21.093Z,53.10
2019-02-21T13:35:56.102Z,52.50
2019-02-21T13:38:25.540Z,52.10
2019-02-21T13:40:55.789Z,52.80
2019-02-21T13:43:34.225Z,52.40
2019-02-21T13:46:07.155Z,52.40
2019-02-21T13:51:29.722Z,53.00
2019-02-21T13:56:52.857Z,53.50
2019-02-21T14:00:01.778Z,53.40
2019-02-21T14:02:33.142Z,53.00
2019-02-21T14:05:22.979Z,52.60
2019-02-21T14:07:51.561Z,53.10
2019-02-21T14:10:25.078Z,53.40
2019-02-21T14:13:04.869Z,53.00
2019-02-21T14:15:45.082Z,52.30
2019-02-21T14:18:29.233Z,52.20
2019-02-21T14:24:16.337Z,52.10
2019-02-21T14:26:53.097Z,52.20
2019-02-21T14:37:04.970Z,52.60
2019-02-21T14:39:37.118Z,52.00
2019-02-21T14:49:20.197Z,54.00
2019-02-21T14:51:57.792Z,53.80
2019-02-21T14:54:32.297Z,53.50
2019-02-21T14:57:11.245Z,53.10
2019-02-21T15:00:37.659Z,52.70
2019-02-21T15:03:21.243Z,52.50
2019-02-21T15:06:11.688Z,52.00
2019-02-21T15:08:51.359Z,52.80
2019-02-21T15:18:17.219Z,54.40
2019-02-21T15:20:49.812Z,55.00
2019-02-21T15:23:49.818Z,54.50
2019-02-21T15:29:41.706Z,56.50
2019-02-21T15:32:17.862Z,55.80
2019-02-21T15:34:50.265Z,56.20
2019-02-21T15:37:23.039Z,56.40
2019-02-21T15:39:57.040Z,55.40
2019-02-21T15:49:11.845Z,54.50
2019-02-21T15:51:41.649Z,54.60
2019-02-21T15:54:12.612Z,54.80
2019-02-21T15:56:43.346Z,54.60
2019-02-21T15:59:21.796Z,54.50
2019-02-21T16:01:53.741Z,55.30
2019-02-21T16:04:57.913Z,55.80
2019-02-21T16:07:40.763Z,55.60
2019-02-21T16:10:52.864Z,55.50
2019-02-21T16:13:29.666Z,55.70
2019-02-21T16:16:09.529Z,56.90
2019-02-21T16:18:40.244Z,56.80
2019-02-21T16:24:13.291Z,56.20
2019-02-21T16:27:02.469Z,56.50
2019-02-21T16:29:38.143Z,56.30
2019-02-21T16:32:10.837Z,56.30
2019-02-21T16:35:14.307Z,56.10
2019-02-21T16:43:39.009Z,56.50
2019-02-21T16:49:18.287Z,56.30
2019-02-21T16:51:56.122Z,56.30
2019-02-21T16:54:27.795Z,56.40
2019-02-21T16:57:08.969Z,56.60
2019-02-21T17:00:05.449Z,56.30
2019-02-21T17:02:46.586Z,56.80
2019-02-21T17:05:37.752Z,57.30
2019-02-21T17:08:12.449Z,57.70
2019-02-21T17:14:09.502Z,57.80
2019-02-21T17:17:22.954Z,57.90
2019-02-21T17:19:50.351Z,58.40
2019-02-21T17:22:45.271Z,58.70
2019-02-21T17:25:29.199Z,58.90
2019-02-21T17:28:34.103Z,59.00
2019-02-21T17:31:18.672Z,59.40
2019-02-21T17:33:56.542Z,59.70
2019-02-21T17:36:29.291Z,59.60
2019-02-21T17:39:44.100Z,61.70
2019-02-21T17:42:15.511Z,59.80
2019-02-21T17:45:35.287Z,60.20
2019-02-21T17:48:07.391Z,59.90
2019-02-21T17:51:04.903Z,60.10
2019-02-21T17:53:45.749Z,60.10
2019-02-21T17:56:15.626Z,60.50
2019-02-21T17:58:52.495Z,63.30
2019-02-21T18:01:19.220Z,59.90
2019-02-21T18:03:56.305Z,61.30
2019-02-21T18:06:30.488Z,61.80
2019-02-21T18:12:45.177Z,62.60
2019-02-21T18:15:32.402Z,64.00
2019-02-21T18:18:09.784Z,64.20
2019-02-21T18:20:52.154Z,64.60
2019-02-21T18:23:36.142Z,65.70
2019-02-21T18:29:08.748Z,65.70
2019-02-21T18:31:40.354Z,65.80
2019-02-21T18:34:19.042Z,67.70
2019-02-21T18:36:57.235Z,66.80
2019-02-21T18:40:00.018Z,66.40
2019-02-21T18:42:30.531Z,66.60
2019-02-21T18:45:06.403Z,67.30
2019-02-21T18:47:52.655Z,67.70
2019-02-21T18:50:37.196Z,68.20
2019-02-21T18:53:13.637Z,68.00
2019-02-21T18:56:28.452Z,69.00
2019-02-21T18:59:01.144Z,70.70
2019-02-21T19:15:09.102Z,70.50
2019-02-21T19:17:40.166Z,70.70
2019-02-21T19:20:41.791Z,71.40
2019-02-21T19:23:15.579Z,71.10
2019-02-21T19:25:50.752Z,71.60
2019-02-21T19:28:37.236Z,71.50
2019-02-21T19:31:23.999Z,71.60
2019-02-21T19:33:59.359Z,71.70
2019-02-21T19:36:43.149Z,71.80
2019-02-21T19:39:15.820Z,72.60
2019-02-21T19:41:46.877Z,72.50
2019-02-21T19:44:17.078Z,72.60
2019-02-21T19:47:00.153Z,73.00
2019-02-21T19:49:46.349Z,72.80
2019-02-21T19:52:12.352Z,72.70
2019-02-21T19:54:45.368Z,72.40
2019-02-21T19:57:18.275Z,73.30
2019-02-21T20:02:53.198Z,73.60
2019-02-21T20:05:27.734Z,73.40
2019-02-21T20:08:07.806Z,74.40
2019-02-21T20:10:39.978Z,74.20
2019-02-21T20:13:14.861Z,73.90
2019-02-21T20:15:50.253Z,71.60
2019-02-21T20:22:09.361Z,73.30
2019-02-21T20:25:12.087Z,73.30
2019-02-21T20:27:43.380Z,73.70
2019-02-21T20:30:56.428Z,73.60
2019-02-21T20:33:36.186Z,73.60
2019-02-21T20:36:50.440Z,73.10
2019-02-21T20:39:11.496Z,73.40
2019-02-21T20:41:53.498Z,73.70
2019-02-21T20:44:23.734Z,73.00
2019-02-21T20:53:58.295Z,72.90
2019-02-21T20:56:29.220Z,74.50
2019-02-21T20:59:02.282Z,74.50
2019-02-21T21:01:39.356Z,75.10
2019-02-21T21:04:58.071Z,76.10
2019-02-21T21:07:30.897Z,76.40
2019-02-21T21:10:44.035Z,75.80
2019-02-21T21:13:15.679Z,75.30
2019-02-21T21:16:33.084Z,75.40
2019-02-21T21:19:16.337Z,74.60
2019-02-21T21:22:08.091Z,75.20
2019-02-21T21:24:42.891Z,75.40
2019-02-21T21:34:09.289Z,75.30
2019-02-21T21:36:44.151Z,75.40
2019-02-21T21:40:04.709Z,75.20
2019-02-21T21:42:38.905Z,75.00
2019-02-21T21:45:41.304Z,75.20
2019-02-21T21:48:17.310Z,75.60
2019-02-21T21:53:38.779Z,75.10
2019-02-21T21:56:49.505Z,75.20
2019-02-21T21:59:25.048Z,76.30
2019-02-21T22:04:51.485Z,75.80
2019-02-21T22:08:09.483Z,75.90
2019-02-21T22:10:40.197Z,76.00
2019-02-21T22:13:11.464Z,76.30
2019-02-21T22:15:44.674Z,76.50
2019-02-21T22:18:27.629Z,76.70
2019-02-21T22:21:05.140Z,76.10
2019-02-21T22:24:19.778Z,76.10
2019-02-21T22:26:54.119Z,75.80
2019-02-21T22:30:09.427Z,75.90
2019-02-21T22:32:50.703Z,76.60
2019-02-21T22:35:57.185Z,75.50
2019-02-21T22:38:33.238Z,75.90
2019-02-21T22:41:40.872Z,76.40
2019-02-21T22:44:13.753Z,76.50
2019-02-21T22:47:30.468Z,76.50
2019-02-21T22:50:08.532Z,74.40
2019-02-21T22:53:17.128Z,79.10
2019-02-21T22:55:49.645Z,77.60
2019-02-21T23:05:16.358Z,80.20
2019-02-21T23:07:49.295Z,82.30
2019-02-21T23:11:10.671Z,81.40
2019-02-21T23:13:41.194Z,81.90
2019-02-21T23:16:14.299Z,84.80
2019-02-21T23:18:53.757Z,83.20
2019-02-21T23:21:26.834Z,81.70
2019-02-21T23:24:26.282Z,83.60
2019-02-21T23:27:01.424Z,80.60
2019-02-21T23:32:43.947Z,77.60
2019-02-21T23:35:16.100Z,79.70
2019-02-21T23:38:37.436Z,79.60
2019-02-21T23:41:09.755Z,82.80
2019-02-21T23:43:42.152Z,82.10
2019-02-21T23:46:23.141Z,85.60
2019-02-21T23:48:54.410Z,84.80
2019-02-21T23:51:26.260Z,82.20
2019-02-21T23:54:02.978Z,83.30
